sensor_id;sensor_type;location;lat;lon;timestamp;P1;durP1;ratioP1;P2;durP2;ratioP2
70026;SDS011;57506;50.092;15.804;2023-02-08T00:01:12;83.40;;;29.10;;
70026;SDS011;57506;50.092;15.804;2023-02-08T00:03:40;78.85;;;28.70;;
70026;SDS011;57506;50.092;15.804;2023-02-08T00:06:06;81.43;;;27.58;;
70026;SDS011;57506;50.092;15.804;2023-02-08T00:08:33;69.95;;;27.10;;
70026;SDS011;57506;50.092;15.804;2023-02-08T00:11:00;71.10;;;23.73;;
70026;SDS011;57506;50.092;15.804;2023-02-08T00:13:25;72.68;;;26.10;;
70026;SDS011;57506;50.092;15.804;2023-02-08T00:15:52;71.73;;;25.33;;
70026;SDS011;57506;50.092;15.804;2023-02-08T00:18:18;73.47;;;25.90;;
70026;SDS011;57506;50.092;15.804;2023-02-08T00:20:44;70.53;;;24.40;;
70026;SDS011;57506;50.092;15.804;2023-02-08T00:23:11;72.73;;;26.17;;
70026;SDS011;57506;50.092;15.804;2023-02-08T00:25:38;65.07;;;24.42;;
70026;SDS011;57506;50.092;15.804;2023-02-08T00:28:04;73.40;;;26.02;;
70026;SDS011;57506;50.092;15.804;2023-02-08T00:30:30;65.93;;;24.63;;
70026;SDS011;57506;50.092;15.804;2023-02-08T00:32:56;65.40;;;24.48;;
70026;SDS011;57506;50.092;15.804;2023-02-08T00:35:23;69.17;;;23.60;;
70026;SDS011;57506;50.092;15.804;2023-02-08T00:37:48;63.45;;;24.48;;
70026;SDS011;57506;50.092;15.804;2023-02-08T00:40:14;70.87;;;25.63;;
70026;SDS011;57506;50.092;15.804;2023-02-08T00:42:39;72.03;;;24.23;;
70026;SDS011;57506;50.092;15.804;2023-02-08T00:45:05;73.47;;;25.38;;
70026;SDS011;57506;50.092;15.804;2023-02-08T00:47:31;60.57;;;23.43;;
70026;SDS011;57506;50.092;15.804;2023-02-08T00:49:56;68.57;;;24.77;;
70026;SDS011;57506;50.092;15.804;2023-02-08T00:52:22;60.22;;;22.23;;
70026;SDS011;57506;50.092;15.804;2023-02-08T00:54:47;60.67;;;22.52;;
70026;SDS011;57506;50.092;15.804;2023-02-08T00:57:13;64.73;;;23.50;;
70026;SDS011;57506;50.092;15.804;2023-02-08T00:59:39;68.10;;;23.10;;
70026;SDS011;57506;50.092;15.804;2023-02-08T01:02:04;65.10;;;22.63;;
70026;SDS011;57506;50.092;15.804;2023-02-08T01:04:30;55.13;;;20.98;;
70026;SDS011;57506;50.092;15.804;2023-02-08T01:06:56;57.60;;;20.98;;
70026;SDS011;57506;50.092;15.804;2023-02-08T01:09:22;55.90;;;20.15;;
70026;SDS011;57506;50.092;15.804;2023-02-08T01:11:48;55.33;;;22.02;;
70026;SDS011;57506;50.092;15.804;2023-02-08T01:14:13;61.27;;;19.87;;
70026;SDS011;57506;50.092;15.804;2023-02-08T01:16:39;55.60;;;20.83;;
70026;SDS011;57506;50.092;15.804;2023-02-08T01:19:05;64.57;;;21.77;;
70026;SDS011;57506;50.092;15.804;2023-02-08T01:21:32;58.50;;;21.80;;
70026;SDS011;57506;50.092;15.804;2023-02-08T01:24:02;58.08;;;21.42;;
70026;SDS011;57506;50.092;15.804;2023-02-08T01:26:29;69.85;;;21.85;;
70026;SDS011;57506;50.092;15.804;2023-02-08T01:28:55;62.33;;;24.23;;
70026;SDS011;57506;50.092;15.804;2023-02-08T01:31:22;61.50;;;22.67;;
70026;SDS011;57506;50.092;15.804;2023-02-08T01:33:49;74.40;;;23.73;;
70026;SDS011;57506;50.092;15.804;2023-02-08T01:36:15;62.38;;;22.88;;
70026;SDS011;57506;50.092;15.804;2023-02-08T01:38:41;62.60;;;22.30;;
70026;SDS011;57506;50.092;15.804;2023-02-08T01:41:08;57.50;;;21.35;;
70026;SDS011;57506;50.092;15.804;2023-02-08T01:46:22;57.00;;;21.17;;
70026;SDS011;57506;50.092;15.804;2023-02-08T01:48:48;60.22;;;20.77;;
70026;SDS011;57506;50.092;15.804;2023-02-08T01:51:19;51.50;;;19.83;;
70026;SDS011;57506;50.092;15.804;2023-02-08T01:53:46;55.13;;;20.42;;
70026;SDS011;57506;50.092;15.804;2023-02-08T01:56:17;60.85;;;21.58;;
70026;SDS011;57506;50.092;15.804;2023-02-08T01:58:51;56.97;;;22.65;;
70026;SDS011;57506;50.092;15.804;2023-02-08T02:01:19;53.67;;;21.20;;
70026;SDS011;57506;50.092;15.804;2023-02-08T02:03:45;52.33;;;20.47;;
70026;SDS011;57506;50.092;15.804;2023-02-08T02:06:18;65.82;;;20.75;;
70026;SDS011;57506;50.092;15.804;2023-02-08T02:08:50;62.10;;;19.47;;
70026;SDS011;57506;50.092;15.804;2023-02-08T02:11:22;51.53;;;20.33;;
70026;SDS011;57506;50.092;15.804;2023-02-08T02:13:48;62.75;;;21.92;;
70026;SDS011;57506;50.092;15.804;2023-02-08T02:16:15;54.38;;;20.48;;
70026;SDS011;57506;50.092;15.804;2023-02-08T02:18:41;51.40;;;20.27;;
70026;SDS011;57506;50.092;15.804;2023-02-08T02:51:13;54.87;;;20.03;;
70026;SDS011;57506;50.092;15.804;2023-02-08T02:54:00;55.05;;;20.90;;
70026;SDS011;57506;50.092;15.804;2023-02-08T02:56:33;55.20;;;21.10;;
70026;SDS011;57506;50.092;15.804;2023-02-08T02:59:04;59.15;;;20.60;;
70026;SDS011;57506;50.092;15.804;2023-02-08T03:01:31;53.08;;;19.85;;
70026;SDS011;57506;50.092;15.804;2023-02-08T03:03:57;52.87;;;19.40;;
70026;SDS011;57506;50.092;15.804;2023-02-08T03:09:26;52.22;;;18.83;;
70026;SDS011;57506;50.092;15.804;2023-02-08T03:33:24;45.92;;;18.90;;
70026;SDS011;57506;50.092;15.804;2023-02-08T03:36:00;52.75;;;19.17;;
70026;SDS011;57506;50.092;15.804;2023-02-08T03:38:34;49.30;;;18.13;;
70026;SDS011;57506;50.092;15.804;2023-02-08T03:41:03;51.30;;;18.70;;
70026;SDS011;57506;50.092;15.804;2023-02-08T03:43:46;46.50;;;17.85;;
70026;SDS011;57506;50.092;15.804;2023-02-08T03:46:18;47.58;;;18.02;;
70026;SDS011;57506;50.092;15.804;2023-02-08T03:48:48;51.20;;;19.67;;
70026;SDS011;57506;50.092;15.804;2023-02-08T03:51:18;50.53;;;19.47;;
70026;SDS011;57506;50.092;15.804;2023-02-08T03:53:47;44.78;;;17.98;;
70026;SDS011;57506;50.092;15.804;2023-02-08T03:56:19;50.42;;;19.23;;
70026;SDS011;57506;50.092;15.804;2023-02-08T03:58:54;46.58;;;18.02;;
70026;SDS011;57506;50.092;15.804;2023-02-08T04:01:28;49.30;;;19.02;;
70026;SDS011;57506;50.092;15.804;2023-02-08T04:03:57;44.92;;;18.15;;
70026;SDS011;57506;50.092;15.804;2023-02-08T04:06:24;46.72;;;17.25;;
70026;SDS011;57506;50.092;15.804;2023-02-08T04:08:50;46.10;;;16.85;;
70026;SDS011;57506;50.092;15.804;2023-02-08T04:11:16;46.75;;;17.60;;
70026;SDS011;57506;50.092;15.804;2023-02-08T04:13:42;49.67;;;18.30;;
70026;SDS011;57506;50.092;15.804;2023-02-08T04:16:11;56.77;;;17.83;;
70026;SDS011;57506;50.092;15.804;2023-02-08T04:18:37;43.92;;;17.45;;
70026;SDS011;57506;50.092;15.804;2023-02-08T04:21:02;44.07;;;16.43;;
70026;SDS011;57506;50.092;15.804;2023-02-08T04:23:28;49.35;;;17.40;;
70026;SDS011;57506;50.092;15.804;2023-02-08T04:25:54;44.80;;;17.90;;
70026;SDS011;57506;50.092;15.804;2023-02-08T04:28:19;44.88;;;18.35;;
70026;SDS011;57506;50.092;15.804;2023-02-08T04:30:44;39.90;;;15.67;;
70026;SDS011;57506;50.092;15.804;2023-02-08T04:33:10;52.47;;;18.00;;
70026;SDS011;57506;50.092;15.804;2023-02-08T04:35:37;46.47;;;17.10;;
70026;SDS011;57506;50.092;15.804;2023-02-08T04:38:03;42.38;;;17.10;;
70026;SDS011;57506;50.092;15.804;2023-02-08T04:40:28;51.67;;;18.08;;
70026;SDS011;57506;50.092;15.804;2023-02-08T04:42:55;45.63;;;18.13;;
70026;SDS011;57506;50.092;15.804;2023-02-08T04:45:20;46.03;;;18.30;;
70026;SDS011;57506;50.092;15.804;2023-02-08T04:47:46;48.73;;;18.63;;
70026;SDS011;57506;50.092;15.804;2023-02-08T04:50:11;46.88;;;18.13;;
70026;SDS011;57506;50.092;15.804;2023-02-08T04:52:37;44.03;;;17.25;;
70026;SDS011;57506;50.092;15.804;2023-02-08T04:55:02;52.57;;;18.67;;
70026;SDS011;57506;50.092;15.804;2023-02-08T04:57:28;45.60;;;17.93;;
70026;SDS011;57506;50.092;15.804;2023-02-08T04:59:53;51.67;;;18.67;;
70026;SDS011;57506;50.092;15.804;2023-02-08T05:02:19;50.13;;;19.50;;
70026;SDS011;57506;50.092;15.804;2023-02-08T05:04:44;50.53;;;19.97;;
70026;SDS011;57506;50.092;15.804;2023-02-08T05:07:10;48.35;;;17.85;;
70026;SDS011;57506;50.092;15.804;2023-02-08T05:09:35;46.28;;;19.33;;
70026;SDS011;57506;50.092;15.804;2023-02-08T05:12:01;47.97;;;17.93;;
70026;SDS011;57506;50.092;15.804;2023-02-08T05:14:26;51.33;;;19.30;;
70026;SDS011;57506;50.092;15.804;2023-02-08T05:16:52;55.03;;;18.90;;
70026;SDS011;57506;50.092;15.804;2023-02-08T05:19:17;49.50;;;18.73;;
70026;SDS011;57506;50.092;15.804;2023-02-08T05:21:43;46.77;;;19.03;;
70026;SDS011;57506;50.092;15.804;2023-02-08T05:24:08;46.35;;;17.65;;
70026;SDS011;57506;50.092;15.804;2023-02-08T05:26:36;49.03;;;18.47;;
70026;SDS011;57506;50.092;15.804;2023-02-08T05:29:02;47.40;;;18.15;;
70026;SDS011;57506;50.092;15.804;2023-02-08T05:31:27;51.50;;;18.00;;
70026;SDS011;57506;50.092;15.804;2023-02-08T05:33:53;54.85;;;18.23;;
70026;SDS011;57506;50.092;15.804;2023-02-08T05:36:19;44.00;;;17.90;;
70026;SDS011;57506;50.092;15.804;2023-02-08T05:38:45;52.50;;;19.30;;
70026;SDS011;57506;50.092;15.804;2023-02-08T05:41:11;45.70;;;18.10;;
70026;SDS011;57506;50.092;15.804;2023-02-08T05:43:36;50.65;;;18.90;;
70026;SDS011;57506;50.092;15.804;2023-02-08T05:46:02;51.43;;;20.50;;
70026;SDS011;57506;50.092;15.804;2023-02-08T05:48:28;51.63;;;19.60;;
70026;SDS011;57506;50.092;15.804;2023-02-08T05:50:55;48.22;;;18.40;;
70026;SDS011;57506;50.092;15.804;2023-02-08T05:53:21;45.97;;;18.52;;
70026;SDS011;57506;50.092;15.804;2023-02-08T05:55:46;49.47;;;18.47;;
70026;SDS011;57506;50.092;15.804;2023-02-08T05:58:14;49.60;;;18.23;;
70026;SDS011;57506;50.092;15.804;2023-02-08T06:00:41;47.20;;;16.83;;
70026;SDS011;57506;50.092;15.804;2023-02-08T06:03:08;40.60;;;16.65;;
70026;SDS011;57506;50.092;15.804;2023-02-08T06:05:35;50.15;;;17.35;;
70026;SDS011;57506;50.092;15.804;2023-02-08T06:08:01;42.13;;;16.88;;
70026;SDS011;57506;50.092;15.804;2023-02-08T06:10:27;47.47;;;16.80;;
70026;SDS011;57506;50.092;15.804;2023-02-08T06:12:52;40.10;;;15.23;;
70026;SDS011;57506;50.092;15.804;2023-02-08T06:15:18;43.77;;;16.20;;
70026;SDS011;57506;50.092;15.804;2023-02-08T06:17:43;46.80;;;17.10;;
70026;SDS011;57506;50.092;15.804;2023-02-08T06:20:09;43.83;;;17.05;;
70026;SDS011;57506;50.092;15.804;2023-02-08T06:22:35;50.50;;;17.17;;
70026;SDS011;57506;50.092;15.804;2023-02-08T06:25:00;50.97;;;17.45;;
70026;SDS011;57506;50.092;15.804;2023-02-08T06:27:26;50.37;;;17.63;;
70026;SDS011;57506;50.092;15.804;2023-02-08T06:29:51;48.37;;;17.73;;
70026;SDS011;57506;50.092;15.804;2023-02-08T06:32:17;59.17;;;20.50;;
70026;SDS011;57506;50.092;15.804;2023-02-08T06:34:43;54.73;;;18.57;;
70026;SDS011;57506;50.092;15.804;2023-02-08T06:37:08;52.70;;;18.23;;
70026;SDS011;57506;50.092;15.804;2023-02-08T06:39:34;53.25;;;17.92;;
70026;SDS011;57506;50.092;15.804;2023-02-08T06:41:59;49.53;;;16.30;;
70026;SDS011;57506;50.092;15.804;2023-02-08T06:44:25;45.13;;;16.57;;
70026;SDS011;57506;50.092;15.804;2023-02-08T06:46:50;39.85;;;14.02;;
70026;SDS011;57506;50.092;15.804;2023-02-08T06:49:16;44.07;;;15.57;;
70026;SDS011;57506;50.092;15.804;2023-02-08T06:51:42;43.80;;;15.63;;
70026;SDS011;57506;50.092;15.804;2023-02-08T06:54:07;41.80;;;15.43;;
70026;SDS011;57506;50.092;15.804;2023-02-08T06:56:34;41.92;;;16.08;;
70026;SDS011;57506;50.092;15.804;2023-02-08T06:58:59;45.17;;;16.50;;
70026;SDS011;57506;50.092;15.804;2023-02-08T07:01:25;43.57;;;15.47;;
70026;SDS011;57506;50.092;15.804;2023-02-08T07:03:50;41.60;;;16.40;;
70026;SDS011;57506;50.092;15.804;2023-02-08T07:06:17;44.80;;;16.90;;
70026;SDS011;57506;50.092;15.804;2023-02-08T07:08:44;48.83;;;16.80;;
70026;SDS011;57506;50.092;15.804;2023-02-08T07:11:12;47.58;;;16.95;;
70026;SDS011;57506;50.092;15.804;2023-02-08T07:13:40;46.60;;;16.60;;
70026;SDS011;57506;50.092;15.804;2023-02-08T07:16:06;50.20;;;18.52;;
70026;SDS011;57506;50.092;15.804;2023-02-08T07:18:33;43.58;;;16.20;;
70026;SDS011;57506;50.092;15.804;2023-02-08T07:20:59;52.10;;;17.73;;
70026;SDS011;57506;50.092;15.804;2023-02-08T07:23:24;46.03;;;16.95;;
70026;SDS011;57506;50.092;15.804;2023-02-08T07:26:00;50.37;;;17.00;;
70026;SDS011;57506;50.092;15.804;2023-02-08T07:28:28;42.70;;;16.23;;
70026;SDS011;57506;50.092;15.804;2023-02-08T07:30:54;48.30;;;17.93;;
70026;SDS011;57506;50.092;15.804;2023-02-08T07:33:20;42.95;;;17.45;;
70026;SDS011;57506;50.092;15.804;2023-02-08T07:35:46;47.22;;;18.20;;
70026;SDS011;57506;50.092;15.804;2023-02-08T07:38:12;44.00;;;17.03;;
70026;SDS011;57506;50.092;15.804;2023-02-08T07:40:37;47.38;;;17.45;;
70026;SDS011;57506;50.092;15.804;2023-02-08T07:43:03;51.17;;;17.07;;
70026;SDS011;57506;50.092;15.804;2023-02-08T07:45:28;43.90;;;16.43;;
70026;SDS011;57506;50.092;15.804;2023-02-08T07:47:54;45.95;;;16.27;;
70026;SDS011;57506;50.092;15.804;2023-02-08T07:50:19;41.23;;;16.23;;
70026;SDS011;57506;50.092;15.804;2023-02-08T07:52:45;41.93;;;16.70;;
70026;SDS011;57506;50.092;15.804;2023-02-08T07:55:12;41.60;;;15.90;;
70026;SDS011;57506;50.092;15.804;2023-02-08T07:57:44;45.45;;;15.52;;
70026;SDS011;57506;50.092;15.804;2023-02-08T08:00:12;46.70;;;16.10;;
70026;SDS011;57506;50.092;15.804;2023-02-08T08:02:38;45.15;;;15.43;;
70026;SDS011;57506;50.092;15.804;2023-02-08T08:05:04;42.43;;;14.43;;
70026;SDS011;57506;50.092;15.804;2023-02-08T08:07:30;40.60;;;15.10;;
70026;SDS011;57506;50.092;15.804;2023-02-08T08:09:56;36.87;;;15.07;;
70026;SDS011;57506;50.092;15.804;2023-02-08T08:12:21;45.95;;;15.60;;
70026;SDS011;57506;50.092;15.804;2023-02-08T08:14:48;38.88;;;14.57;;
70026;SDS011;57506;50.092;15.804;2023-02-08T08:17:14;44.53;;;15.75;;
70026;SDS011;57506;50.092;15.804;2023-02-08T08:19:41;40.05;;;14.50;;
70026;SDS011;57506;50.092;15.804;2023-02-08T08:22:06;38.28;;;14.75;;
70026;SDS011;57506;50.092;15.804;2023-02-08T08:24:32;38.97;;;14.07;;
70026;SDS011;57506;50.092;15.804;2023-02-08T08:27:00;42.55;;;15.50;;
70026;SDS011;57506;50.092;15.804;2023-02-08T08:29:33;40.97;;;16.77;;
70026;SDS011;57506;50.092;15.804;2023-02-08T08:31:59;38.83;;;15.60;;
70026;SDS011;57506;50.092;15.804;2023-02-08T08:34:25;39.00;;;14.90;;
70026;SDS011;57506;50.092;15.804;2023-02-08T08:36:57;35.70;;;14.60;;
70026;SDS011;57506;50.092;15.804;2023-02-08T08:39:24;38.67;;;14.63;;
70026;SDS011;57506;50.092;15.804;2023-02-08T08:41:51;41.17;;;15.32;;
70026;SDS011;57506;50.092;15.804;2023-02-08T08:44:18;38.92;;;15.10;;
70026;SDS011;57506;50.092;15.804;2023-02-08T08:46:44;39.55;;;15.07;;
70026;SDS011;57506;50.092;15.804;2023-02-08T08:49:09;34.10;;;13.93;;
70026;SDS011;57506;50.092;15.804;2023-02-08T08:51:35;41.23;;;14.97;;
70026;SDS011;57506;50.092;15.804;2023-02-08T08:54:01;39.25;;;15.10;;
70026;SDS011;57506;50.092;15.804;2023-02-08T08:56:28;39.33;;;14.80;;
70026;SDS011;57506;50.092;15.804;2023-02-08T08:58:53;38.50;;;15.30;;
70026;SDS011;57506;50.092;15.804;2023-02-08T09:01:19;39.88;;;15.48;;
70026;SDS011;57506;50.092;15.804;2023-02-08T09:03:45;39.50;;;15.20;;
70026;SDS011;57506;50.092;15.804;2023-02-08T09:06:11;36.53;;;15.00;;
70026;SDS011;57506;50.092;15.804;2023-02-08T09:08:36;42.28;;;16.42;;
70026;SDS011;57506;50.092;15.804;2023-02-08T09:11:06;37.73;;;14.63;;
70026;SDS011;57506;50.092;15.804;2023-02-08T09:13:33;37.40;;;14.73;;
70026;SDS011;57506;50.092;15.804;2023-02-08T09:16:10;39.15;;;15.20;;
70026;SDS011;57506;50.092;15.804;2023-02-08T09:18:37;41.05;;;14.85;;
70026;SDS011;57506;50.092;15.804;2023-02-08T09:21:07;36.67;;;14.57;;
70026;SDS011;57506;50.092;15.804;2023-02-08T09:23:37;35.13;;;14.02;;
70026;SDS011;57506;50.092;15.804;2023-02-08T09:26:03;37.72;;;15.43;;
70026;SDS011;57506;50.092;15.804;2023-02-08T09:28:30;36.65;;;14.43;;
70026;SDS011;57506;50.092;15.804;2023-02-08T09:30:56;39.35;;;14.68;;
70026;SDS011;57506;50.092;15.804;2023-02-08T09:33:23;27.63;;;11.70;;
70026;SDS011;57506;50.092;15.804;2023-02-08T09:35:48;32.72;;;12.93;;
70026;SDS011;57506;50.092;15.804;2023-02-08T09:38:14;29.43;;;11.80;;
70026;SDS011;57506;50.092;15.804;2023-02-08T09:46:17;25.20;;;10.37;;
70026;SDS011;57506;50.092;15.804;2023-02-08T09:48:45;27.25;;;10.70;;
70026;SDS011;57506;50.092;15.804;2023-02-08T09:51:20;25.65;;;9.50;;
70026;SDS011;57506;50.092;15.804;2023-02-08T09:56:40;28.60;;;10.85;;
70026;SDS011;57506;50.092;15.804;2023-02-08T09:59:11;24.70;;;9.20;;
70026;SDS011;57506;50.092;15.804;2023-02-08T10:01:45;24.52;;;10.35;;
70026;SDS011;57506;50.092;15.804;2023-02-08T10:06:48;24.38;;;10.43;;
70026;SDS011;57506;50.092;15.804;2023-02-08T10:09:14;20.00;;;8.77;;
70026;SDS011;57506;50.092;15.804;2023-02-08T10:28:29;28.35;;;11.57;;
70026;SDS011;57506;50.092;15.804;2023-02-08T10:34:01;24.80;;;10.43;;
70026;SDS011;57506;50.092;15.804;2023-02-08T10:36:34;28.67;;;10.43;;
70026;SDS011;57506;50.092;15.804;2023-02-08T10:39:09;27.25;;;11.02;;
70026;SDS011;57506;50.092;15.804;2023-02-08T10:41:40;27.40;;;11.20;;
70026;SDS011;57506;50.092;15.804;2023-02-08T10:49:10;27.73;;;11.20;;
70026;SDS011;57506;50.092;15.804;2023-02-08T10:51:43;28.73;;;11.10;;
70026;SDS011;57506;50.092;15.804;2023-02-08T10:54:13;28.85;;;11.32;;
70026;SDS011;57506;50.092;15.804;2023-02-08T10:59:36;26.75;;;10.30;;
70026;SDS011;57506;50.092;15.804;2023-02-08T11:02:52;27.23;;;10.30;;
70026;SDS011;57506;50.092;15.804;2023-02-08T11:07:32;24.88;;;10.25;;
70026;SDS011;57506;50.092;15.804;2023-02-08T11:12:58;28.58;;;10.70;;
70026;SDS011;57506;50.092;15.804;2023-02-08T11:15:26;22.27;;;9.73;;
70026;SDS011;57506;50.092;15.804;2023-02-08T11:17:58;27.77;;;10.77;;
70026;SDS011;57506;50.092;15.804;2023-02-08T11:20:33;21.85;;;9.80;;
70026;SDS011;57506;50.092;15.804;2023-02-08T11:23:19;24.55;;;9.50;;
70026;SDS011;57506;50.092;15.804;2023-02-08T11:25:46;25.60;;;9.68;;
70026;SDS011;57506;50.092;15.804;2023-02-08T11:28:22;26.37;;;10.50;;
70026;SDS011;57506;50.092;15.804;2023-02-08T11:31:02;27.75;;;11.60;;
70026;SDS011;57506;50.092;15.804;2023-02-08T11:33:45;27.08;;;10.75;;
70026;SDS011;57506;50.092;15.804;2023-02-08T11:36:23;26.33;;;10.38;;
70026;SDS011;57506;50.092;15.804;2023-02-08T11:38:48;26.13;;;10.53;;
70026;SDS011;57506;50.092;15.804;2023-02-08T11:41:15;23.50;;;10.20;;
70026;SDS011;57506;50.092;15.804;2023-02-08T11:43:49;24.67;;;10.17;;
70026;SDS011;57506;50.092;15.804;2023-02-08T11:46:22;23.75;;;9.90;;
70026;SDS011;57506;50.092;15.804;2023-02-08T11:48:50;28.25;;;10.35;;
70026;SDS011;57506;50.092;15.804;2023-02-08T11:51:31;26.95;;;10.65;;
70026;SDS011;57506;50.092;15.804;2023-02-08T11:53:58;24.45;;;9.68;;
70026;SDS011;57506;50.092;15.804;2023-02-08T11:56:29;22.73;;;9.10;;
70026;SDS011;57506;50.092;15.804;2023-02-08T12:01:29;22.98;;;10.05;;
70026;SDS011;57506;50.092;15.804;2023-02-08T12:03:58;20.63;;;9.38;;
70026;SDS011;57506;50.092;15.804;2023-02-08T12:14:47;20.35;;;7.45;;
70026;SDS011;57506;50.092;15.804;2023-02-08T12:23:19;22.47;;;9.77;;
70026;SDS011;57506;50.092;15.804;2023-02-08T12:26:01;17.23;;;7.30;;
70026;SDS011;57506;50.092;15.804;2023-02-08T12:34:00;23.88;;;9.07;;
70026;SDS011;57506;50.092;15.804;2023-02-08T12:39:38;20.92;;;8.60;;
70026;SDS011;57506;50.092;15.804;2023-02-08T12:42:51;21.10;;;9.32;;
70026;SDS011;57506;50.092;15.804;2023-02-08T12:51:14;23.53;;;8.67;;
70026;SDS011;57506;50.092;15.804;2023-02-08T12:53:49;20.40;;;8.27;;
70026;SDS011;57506;50.092;15.804;2023-02-08T12:56:20;24.48;;;8.65;;
70026;SDS011;57506;50.092;15.804;2023-02-08T12:58:51;25.58;;;9.15;;
70026;SDS011;57506;50.092;15.804;2023-02-08T13:01:21;21.08;;;9.32;;
70026;SDS011;57506;50.092;15.804;2023-02-08T13:03:56;22.07;;;9.13;;
70026;SDS011;57506;50.092;15.804;2023-02-08T13:06:35;25.33;;;8.95;;
70026;SDS011;57506;50.092;15.804;2023-02-08T13:09:16;20.17;;;8.13;;
70026;SDS011;57506;50.092;15.804;2023-02-08T13:12:18;21.08;;;8.90;;
70026;SDS011;57506;50.092;15.804;2023-02-08T13:26:01;18.67;;;8.07;;
70026;SDS011;57506;50.092;15.804;2023-02-08T13:28:31;24.15;;;8.50;;
70026;SDS011;57506;50.092;15.804;2023-02-08T13:30:58;19.20;;;8.55;;
70026;SDS011;57506;50.092;15.804;2023-02-08T13:33:39;21.67;;;8.60;;
70026;SDS011;57506;50.092;15.804;2023-02-08T13:38:59;19.73;;;8.98;;
70026;SDS011;57506;50.092;15.804;2023-02-08T13:41:27;20.05;;;8.25;;
70026;SDS011;57506;50.092;15.804;2023-02-08T13:43:58;21.20;;;8.52;;
70026;SDS011;57506;50.092;15.804;2023-02-08T13:46:34;17.70;;;7.20;;
70026;SDS011;57506;50.092;15.804;2023-02-08T13:52:10;21.58;;;8.73;;
70026;SDS011;57506;50.092;15.804;2023-02-08T13:57:54;22.00;;;8.02;;
70026;SDS011;57506;50.092;15.804;2023-02-08T14:00:27;20.90;;;8.63;;
70026;SDS011;57506;50.092;15.804;2023-02-08T14:13:46;23.47;;;9.13;;
70026;SDS011;57506;50.092;15.804;2023-02-08T14:21:44;25.30;;;10.40;;
70026;SDS011;57506;50.092;15.804;2023-02-08T14:24:22;25.90;;;8.98;;
70026;SDS011;57506;50.092;15.804;2023-02-08T14:27:03;22.55;;;9.77;;
70026;SDS011;57506;50.092;15.804;2023-02-08T14:29:32;23.05;;;8.77;;
70026;SDS011;57506;50.092;15.804;2023-02-08T14:31:58;19.33;;;7.90;;
70026;SDS011;57506;50.092;15.804;2023-02-08T14:34:28;19.10;;;8.40;;
70026;SDS011;57506;50.092;15.804;2023-02-08T14:36:58;22.00;;;8.77;;
70026;SDS011;57506;50.092;15.804;2023-02-08T14:39:26;21.33;;;8.52;;
70026;SDS011;57506;50.092;15.804;2023-02-08T14:42:01;25.38;;;9.20;;
70026;SDS011;57506;50.092;15.804;2023-02-08T14:47:12;20.83;;;8.40;;
70026;SDS011;57506;50.092;15.804;2023-02-08T14:50:20;22.52;;;9.00;;
70026;SDS011;57506;50.092;15.804;2023-02-08T14:55:41;23.58;;;10.07;;
70026;SDS011;57506;50.092;15.804;2023-02-08T14:58:21;25.17;;;10.57;;
70026;SDS011;57506;50.092;15.804;2023-02-08T15:00:51;21.17;;;9.27;;
70026;SDS011;57506;50.092;15.804;2023-02-08T15:03:18;23.63;;;8.88;;
70026;SDS011;57506;50.092;15.804;2023-02-08T15:08:51;23.92;;;9.70;;
70026;SDS011;57506;50.092;15.804;2023-02-08T15:11:20;23.20;;;9.25;;
70026;SDS011;57506;50.092;15.804;2023-02-08T15:13:49;29.42;;;14.77;;
70026;SDS011;57506;50.092;15.804;2023-02-08T15:16:16;17.88;;;9.02;;
70026;SDS011;57506;50.092;15.804;2023-02-08T15:18:44;24.67;;;9.80;;
70026;SDS011;57506;50.092;15.804;2023-02-08T15:21:15;23.27;;;10.80;;
70026;SDS011;57506;50.092;15.804;2023-02-08T15:23:56;20.67;;;8.68;;
70026;SDS011;57506;50.092;15.804;2023-02-08T15:26:22;24.30;;;10.02;;
70026;SDS011;57506;50.092;15.804;2023-02-08T15:28:48;25.90;;;10.87;;
70026;SDS011;57506;50.092;15.804;2023-02-08T15:31:17;26.25;;;10.60;;
70026;SDS011;57506;50.092;15.804;2023-02-08T15:33:45;23.00;;;10.05;;
70026;SDS011;57506;50.092;15.804;2023-02-08T15:36:28;19.83;;;8.27;;
70026;SDS011;57506;50.092;15.804;2023-02-08T15:38:57;22.23;;;8.80;;
70026;SDS011;57506;50.092;15.804;2023-02-08T15:41:27;21.33;;;8.30;;
70026;SDS011;57506;50.092;15.804;2023-02-08T15:46:27;17.63;;;7.00;;
70026;SDS011;57506;50.092;15.804;2023-02-08T15:48:53;14.63;;;6.05;;
70026;SDS011;57506;50.092;15.804;2023-02-08T15:51:21;14.07;;;5.80;;
70026;SDS011;57506;50.092;15.804;2023-02-08T15:53:49;12.95;;;5.10;;
70026;SDS011;57506;50.092;15.804;2023-02-08T15:56:19;17.85;;;5.57;;
70026;SDS011;57506;50.092;15.804;2023-02-08T15:58:56;14.00;;;5.77;;
70026;SDS011;57506;50.092;15.804;2023-02-08T16:01:24;13.75;;;5.47;;
70026;SDS011;57506;50.092;15.804;2023-02-08T16:03:56;18.98;;;6.03;;
70026;SDS011;57506;50.092;15.804;2023-02-08T16:06:28;16.97;;;5.57;;
70026;SDS011;57506;50.092;15.804;2023-02-08T16:08:57;17.38;;;6.53;;
70026;SDS011;57506;50.092;15.804;2023-02-08T16:11:26;19.00;;;6.43;;
70026;SDS011;57506;50.092;15.804;2023-02-08T16:13:56;18.58;;;7.40;;
70026;SDS011;57506;50.092;15.804;2023-02-08T16:16:24;27.85;;;8.48;;
70026;SDS011;57506;50.092;15.804;2023-02-08T16:21:46;218.10;;;36.40;;
70026;SDS011;57506;50.092;15.804;2023-02-08T16:29:19;244.37;;;42.37;;
70026;SDS011;57506;50.092;15.804;2023-02-08T16:31:55;185.77;;;32.90;;
70026;SDS011;57506;50.092;15.804;2023-02-08T16:34:28;134.88;;;26.67;;
70026;SDS011;57506;50.092;15.804;2023-02-08T16:36:58;136.85;;;25.52;;
70026;SDS011;57506;50.092;15.804;2023-02-08T16:42:37;138.67;;;23.33;;
70026;SDS011;57506;50.092;15.804;2023-02-08T16:47:39;351.90;;;60.75;;
70026;SDS011;57506;50.092;15.804;2023-02-08T16:50:05;269.83;;;48.13;;
70026;SDS011;57506;50.092;15.804;2023-02-08T16:52:33;227.45;;;39.97;;
70026;SDS011;57506;50.092;15.804;2023-02-08T16:55:00;180.63;;;36.93;;
70026;SDS011;57506;50.092;15.804;2023-02-08T16:57:43;159.93;;;33.05;;
70026;SDS011;57506;50.092;15.804;2023-02-08T17:00:23;170.73;;;33.47;;
70026;SDS011;57506;50.092;15.804;2023-02-08T17:02:50;124.07;;;27.27;;
70026;SDS011;57506;50.092;15.804;2023-02-08T17:05:16;62.38;;;18.35;;
70026;SDS011;57506;50.092;15.804;2023-02-08T17:07:43;65.47;;;24.03;;
70026;SDS011;57506;50.092;15.804;2023-02-08T17:10:19;43.40;;;18.80;;
70026;SDS011;57506;50.092;15.804;2023-02-08T17:12:56;43.40;;;14.65;;
70026;SDS011;57506;50.092;15.804;2023-02-08T17:15:23;43.80;;;14.65;;
70026;SDS011;57506;50.092;15.804;2023-02-08T17:17:53;43.23;;;14.97;;
70026;SDS011;57506;50.092;15.804;2023-02-08T17:20:23;40.50;;;13.82;;
70026;SDS011;57506;50.092;15.804;2023-02-08T17:23:00;44.28;;;14.10;;
70026;SDS011;57506;50.092;15.804;2023-02-08T17:25:27;44.10;;;13.95;;
70026;SDS011;57506;50.092;15.804;2023-02-08T17:27:55;35.05;;;12.68;;
70026;SDS011;57506;50.092;15.804;2023-02-08T17:30:36;33.67;;;11.97;;
70026;SDS011;57506;50.092;15.804;2023-02-08T17:33:04;35.92;;;13.50;;
70026;SDS011;57506;50.092;15.804;2023-02-08T17:35:36;40.58;;;14.57;;